sensor_id;sensor_type;location;lat;lon;timestamp;pressure;altitude;pressure_sealevel;temperature;humidity
6528;BME280;64597;42.664;23.256;2023-04-20T00:02:04;94217.22;;;11.19;56.51
6528;BME280;64597;42.664;23.256;2023-04-20T00:04:31;94207.66;;;11.13;56.48
6528;BME280;64597;42.664;23.256;2023-04-20T00:07:02;94217.28;;;11.24;56.92
6528;BME280;64597;42.664;23.256;2023-04-20T00:09:28;94141.22;;;10.72;56.42
6528;BME280;64597;42.664;23.256;2023-04-20T00:11:55;94200.72;;;11.07;56.98
6528;BME280;64597;42.664;23.256;2023-04-20T00:14:25;94192.75;;;11.02;57.12
6528;BME280;64597;42.664;23.256;2023-04-20T00:16:51;94189.63;;;11.05;57.32
6528;BME280;64597;42.664;23.256;2023-04-20T00:19:18;94202.56;;;11.06;57.14
6528;BME280;64597;42.664;23.256;2023-04-20T00:21:47;94196.97;;;11.03;57.09
6528;BME280;64597;42.664;23.256;2023-04-20T00:24:13;94181.31;;;10.96;57.13
6528;BME280;64597;42.664;23.256;2023-04-20T00:26:41;94182.13;;;10.97;56.73
6528;BME280;64597;42.664;23.256;2023-04-20T00:29:09;94195.94;;;11.04;56.73
6528;BME280;64597;42.664;23.256;2023-04-20T00:31:35;94195.19;;;11.08;57.10
6528;BME280;64597;42.664;23.256;2023-04-20T00:34:04;94204.47;;;11.11;57.25
6528;BME280;64597;42.664;23.256;2023-04-20T00:36:33;94195.25;;;11.13;56.97
6528;BME280;64597;42.664;23.256;2023-04-20T00:39:00;94192.91;;;11.17;56.40
6528;BME280;64597;42.664;23.256;2023-04-20T00:41:28;94189.25;;;11.18;56.28
6528;BME280;64597;42.664;23.256;2023-04-20T00:43:55;94129.16;;;10.76;56.45
6528;BME280;64597;42.664;23.256;2023-04-20T00:46:21;94193.75;;;11.22;56.43
6528;BME280;64597;42.664;23.256;2023-04-20T00:48:55;94144.41;;;10.96;56.42
6528;BME280;64597;42.664;23.256;2023-04-20T00:51:21;94189.38;;;11.28;56.42
6528;BME280;64597;42.664;23.256;2023-04-20T00:53:48;94180.09;;;11.25;56.23
6528;BME280;64597;42.664;23.256;2023-04-20T00:56:16;94191.81;;;11.34;56.24
6528;BME280;64597;42.664;23.256;2023-04-20T00:58:45;94180.91;;;11.26;55.80
6528;BME280;64597;42.664;23.256;2023-04-20T01:01:11;94183.91;;;11.34;56.02
6528;BME280;64597;42.664;23.256;2023-04-20T01:03:38;94181.56;;;11.38;56.36
6528;BME280;64597;42.664;23.256;2023-04-20T01:06:06;94185.00;;;11.38;56.20
6528;BME280;64597;42.664;23.256;2023-04-20T01:08:33;94185.78;;;11.39;56.38
6528;BME280;64597;42.664;23.256;2023-04-20T01:11:02;94183.94;;;11.39;56.21
6528;BME280;64597;42.664;23.256;2023-04-20T01:13:32;94185.78;;;11.39;56.21
6528;BME280;64597;42.664;23.256;2023-04-20T01:16:00;94185.00;;;11.38;56.71
6528;BME280;64597;42.664;23.256;2023-04-20T01:18:28;94179.91;;;11.32;56.54
6528;BME280;64597;42.664;23.256;2023-04-20T01:21:06;94191.06;;;11.39;56.85
6528;BME280;64597;42.664;23.256;2023-04-20T01:23:34;94181.94;;;11.25;56.66
6528;BME280;64597;42.664;23.256;2023-04-20T01:26:09;94191.06;;;11.39;57.03
6528;BME280;64597;42.664;23.256;2023-04-20T01:28:36;94186.28;;;11.36;56.86
6528;BME280;64597;42.664;23.256;2023-04-20T01:31:05;94187.66;;;11.43;57.29
6528;BME280;64597;42.664;23.256;2023-04-20T01:33:33;94175.22;;;11.39;57.02
6528;BME280;64597;42.664;23.256;2023-04-20T01:36:02;94187.97;;;11.47;57.19
6528;BME280;64597;42.664;23.256;2023-04-20T01:38:30;94163.09;;;11.43;56.23
6528;BME280;64597;42.664;23.256;2023-04-20T01:40:59;94164.09;;;11.37;56.50
6528;BME280;64597;42.664;23.256;2023-04-20T01:43:27;94178.28;;;11.31;56.69
6528;BME280;64597;42.664;23.256;2023-04-20T01:45:54;94170.88;;;11.28;56.86
6528;BME280;64597;42.664;23.256;2023-04-20T01:48:21;94170.63;;;11.29;56.43
6528;BME280;64597;42.664;23.256;2023-04-20T01:50:50;94156.53;;;11.19;56.94
6528;BME280;64597;42.664;23.256;2023-04-20T01:53:17;94145.44;;;11.17;56.33
6528;BME280;64597;42.664;23.256;2023-04-20T01:55:46;94159.47;;;11.22;56.47
6528;BME280;64597;42.664;23.256;2023-04-20T01:58:14;94156.59;;;11.24;56.36
6528;BME280;64597;42.664;23.256;2023-04-20T02:00:41;94161.63;;;11.25;56.93
6528;BME280;64597;42.664;23.256;2023-04-20T02:03:10;94139.34;;;11.16;56.71
6528;BME280;64597;42.664;23.256;2023-04-20T02:05:39;94151.88;;;11.26;56.74
6528;BME280;64597;42.664;23.256;2023-04-20T02:08:05;94154.25;;;11.27;56.95
6528;BME280;64597;42.664;23.256;2023-04-20T02:10:31;94150.31;;;11.30;56.54
6528;BME280;64597;42.664;23.256;2023-04-20T02:12:58;94126.03;;;11.06;56.66
6528;BME280;64597;42.664;23.256;2023-04-20T02:15:26;94142.31;;;11.20;56.82
6528;BME280;64597;42.664;23.256;2023-04-20T02:17:55;94160.81;;;11.25;56.53
6528;BME280;64597;42.664;23.256;2023-04-20T02:20:22;94147.81;;;11.18;56.98
6528;BME280;64597;42.664;23.256;2023-04-20T02:22:48;94132.63;;;11.04;56.84
6528;BME280;64597;42.664;23.256;2023-04-20T02:25:15;94156.59;;;11.24;56.81
6528;BME280;64597;42.664;23.256;2023-04-20T02:27:44;94159.28;;;11.29;57.12
6528;BME280;64597;42.664;23.256;2023-04-20T02:30:14;94102.38;;;10.90;56.49
6528;BME280;64597;42.664;23.256;2023-04-20T02:32:41;94156.09;;;11.27;56.57
6528;BME280;64597;42.664;23.256;2023-04-20T02:35:10;94154.81;;;11.29;56.32
6528;BME280;64597;42.664;23.256;2023-04-20T02:37:37;94157.69;;;11.28;56.25
6528;BME280;64597;42.664;23.256;2023-04-20T02:40:05;94151.81;;;11.21;56.22
6528;BME280;64597;42.664;23.256;2023-04-20T02:42:35;94161.63;;;11.25;56.68
6528;BME280;64597;42.664;23.256;2023-04-20T02:45:04;94157.63;;;11.23;56.67
6528;BME280;64597;42.664;23.256;2023-04-20T02:47:30;94160.06;;;11.29;56.19
6528;BME280;64597;42.664;23.256;2023-04-20T02:49:58;94165.34;;;11.29;56.07
6528;BME280;64597;42.664;23.256;2023-04-20T02:52:26;94160.25;;;11.23;56.32
6528;BME280;64597;42.664;23.256;2023-04-20T02:54:53;93972.78;;;10.06;56.43
6528;BME280;64597;42.664;23.256;2023-04-20T02:57:20;94155.50;;;11.20;56.03
6528;BME280;64597;42.664;23.256;2023-04-20T02:59:47;94168.72;;;11.25;56.38
6528;BME280;64597;42.664;23.256;2023-04-20T03:02:16;94165.06;;;11.26;55.97
6528;BME280;64597;42.664;23.256;2023-04-20T03:04:45;94161.91;;;11.29;56.13
6528;BME280;64597;42.664;23.256;2023-04-20T03:07:11;94164.06;;;11.32;56.12
6528;BME280;64597;42.664;23.256;2023-04-20T03:09:39;94142.84;;;11.22;56.31
6528;BME280;64597;42.664;23.256;2023-04-20T03:12:07;94159.81;;;11.31;56.25
6528;BME280;64597;42.664;23.256;2023-04-20T03:14:35;94152.66;;;11.26;56.71
6528;BME280;64597;42.664;23.256;2023-04-20T03:17:04;94157.69;;;11.28;56.70
6528;BME280;64597;42.664;23.256;2023-04-20T03:19:31;94137.50;;;11.17;56.39
6528;BME280;64597;42.664;23.256;2023-04-20T03:22:00;94160.81;;;11.25;56.61
6528;BME280;64597;42.664;23.256;2023-04-20T03:24:28;94143.84;;;11.16;56.86
6528;BME280;64597;42.664;23.256;2023-04-20T03:26:55;94161.81;;;11.19;56.79
6528;BME280;64597;42.664;23.256;2023-04-20T03:29:23;94164.97;;;11.16;56.96
6528;BME280;64597;42.664;23.256;2023-04-20T03:31:50;94166.09;;;11.25;56.86
6528;BME280;64597;42.664;23.256;2023-04-20T03:34:17;94149.91;;;11.16;57.05
6528;BME280;64597;42.664;23.256;2023-04-20T03:36:45;94158.19;;;11.25;56.80
6528;BME280;64597;42.664;23.256;2023-04-20T03:39:11;94164.56;;;11.29;56.71
6528;BME280;64597;42.664;23.256;2023-04-20T03:41:40;94162.72;;;11.29;56.62
6528;BME280;64597;42.664;23.256;2023-04-20T03:44:07;94158.97;;;11.25;56.68
6528;BME280;64597;42.664;23.256;2023-04-20T03:46:34;94163.25;;;11.31;56.36
6528;BME280;64597;42.664;23.256;2023-04-20T03:49:02;94164.56;;;11.29;56.28
6528;BME280;64597;42.664;23.256;2023-04-20T03:51:29;94167.16;;;11.24;56.06
6528;BME280;64597;42.664;23.256;2023-04-20T03:53:56;94162.06;;;11.17;56.35
6528;BME280;64597;42.664;23.256;2023-04-20T03:56:23;94159.34;;;11.12;57.02
6528;BME280;64597;42.664;23.256;2023-04-20T03:58:51;94162.75;;;11.08;57.35
6528;BME280;64597;42.664;23.256;2023-04-20T04:01:17;94114.31;;;10.70;57.33
6528;BME280;64597;42.664;23.256;2023-04-20T04:03:44;94160.47;;;10.95;56.94
6528;BME280;64597;42.664;23.256;2023-04-20T04:06:10;94173.19;;;10.98;57.42
6528;BME280;64597;42.664;23.256;2023-04-20T04:08:37;94166.31;;;10.97;57.89
6528;BME280;64597;42.664;23.256;2023-04-20T04:11:04;94167.78;;;10.88;58.19
6528;BME280;64597;42.664;23.256;2023-04-20T04:13:33;94174.16;;;10.92;58.09
6528;BME280;64597;42.664;23.256;2023-04-20T04:16:03;94172.88;;;10.94;57.78
6528;BME280;64597;42.664;23.256;2023-04-20T04:18:31;94168.41;;;10.95;58.06
6528;BME280;64597;42.664;23.256;2023-04-20T04:21:00;94181.31;;;10.96;57.80
6528;BME280;64597;42.664;23.256;2023-04-20T04:23:26;94183.91;;;10.91;58.02
6528;BME280;64597;42.664;23.256;2023-04-20T04:25:52;94181.50;;;10.90;58.63
6528;BME280;64597;42.664;23.256;2023-04-20T04:28:20;94184.09;;;10.85;58.49
6528;BME280;64597;42.664;23.256;2023-04-20T04:30:45;94166.09;;;10.82;58.10
6528;BME280;64597;42.664;23.256;2023-04-20T04:33:13;94170.53;;;10.76;57.71
6528;BME280;64597;42.664;23.256;2023-04-20T04:35:42;94182.91;;;10.75;58.20
6528;BME280;64597;42.664;23.256;2023-04-20T04:38:11;94176.34;;;10.78;57.68
6528;BME280;64597;42.664;23.256;2023-04-20T04:40:39;94187.22;;;10.82;58.08
6528;BME280;64597;42.664;23.256;2023-04-20T04:43:07;94186.47;;;10.86;57.91
6528;BME280;64597;42.664;23.256;2023-04-20T04:45:40;94201.03;;;10.89;57.52
6528;BME280;64597;42.664;23.256;2023-04-20T04:48:06;94195.75;;;10.89;57.80
6528;BME280;64597;42.664;23.256;2023-04-20T04:50:39;94184.09;;;10.85;57.86
6528;BME280;64597;42.664;23.256;2023-04-20T04:53:06;94193.75;;;10.96;57.94
6528;BME280;64597;42.664;23.256;2023-04-20T04:55:34;94183.59;;;10.88;57.42
6528;BME280;64597;42.664;23.256;2023-04-20T04:58:00;94204.50;;;10.94;57.48
6528;BME280;64597;42.664;23.256;2023-04-20T05:00:26;94181.50;;;10.90;56.98
6528;BME280;64597;42.664;23.256;2023-04-20T05:02:54;94181.03;;;10.93;57.07
6528;BME280;64597;42.664;23.256;2023-04-20T05:05:20;94201.16;;;10.99;57.23
6528;BME280;64597;42.664;23.256;2023-04-20T05:07:46;94202.75;;;11.00;57.40
6528;BME280;64597;42.664;23.256;2023-04-20T05:10:12;94203.88;;;11.04;57.62
6528;BME280;64597;42.664;23.256;2023-04-20T05:12:38;94206.53;;;11.09;57.45
6528;BME280;64597;42.664;23.256;2023-04-20T05:15:04;94203.53;;;11.00;57.27
6528;BME280;64597;42.664;23.256;2023-04-20T05:17:30;94207.06;;;11.06;57.17
6528;BME280;64597;42.664;23.256;2023-04-20T05:19:56;94206.72;;;11.02;57.40
6528;BME280;64597;42.664;23.256;2023-04-20T05:22:21;94199.50;;;10.93;57.22
6528;BME280;64597;42.664;23.256;2023-04-20T05:24:47;94208.09;;;11.05;57.52
6528;BME280;64597;42.664;23.256;2023-04-20T05:27:13;94205.50;;;11.10;57.34
6528;BME280;64597;42.664;23.256;2023-04-20T05:29:38;94184.78;;;10.97;57.54
6528;BME280;64597;42.664;23.256;2023-04-20T05:32:04;94209.72;;;11.11;57.78
6528;BME280;64597;42.664;23.256;2023-04-20T05:34:30;94213.72;;;11.13;57.81
6528;BME280;64597;42.664;23.256;2023-04-20T05:36:57;94223.47;;;11.13;57.98
6528;BME280;64597;42.664;23.256;2023-04-20T05:39:23;94215.56;;;11.13;57.90
6528;BME280;64597;42.664;23.256;2023-04-20T05:41:49;94226.22;;;11.66;64.40
6528;BME280;64597;42.664;23.256;2023-04-20T05:44:14;94211.88;;;11.62;61.79
6528;BME280;64597;42.664;23.256;2023-04-20T05:46:40;94226.16;;;11.61;60.12
6528;BME280;64597;42.664;23.256;2023-04-20T05:49:06;94225.03;;;11.57;58.86
6528;BME280;64597;42.664;23.256;2023-04-20T05:51:31;94211.13;;;11.40;58.63
6528;BME280;64597;42.664;23.256;2023-04-20T05:54:01;94225.69;;;11.42;58.57
6528;BME280;64597;42.664;23.256;2023-04-20T05:56:27;94229.09;;;11.43;59.59
6528;BME280;64597;42.664;23.256;2023-04-20T05:58:54;94230.72;;;11.44;59.88
6528;BME280;64597;42.664;23.256;2023-04-20T06:01:20;94228.63;;;11.46;60.02
6528;BME280;64597;42.664;23.256;2023-04-20T06:03:46;94223.53;;;11.39;60.31
6528;BME280;64597;42.664;23.256;2023-04-20T06:06:13;94214.25;;;11.37;61.06
6528;BME280;64597;42.664;23.256;2023-04-20T06:08:39;94221.94;;;11.38;60.67
6528;BME280;64597;42.664;23.256;2023-04-20T06:11:04;94224.03;;;11.36;60.96
6528;BME280;64597;42.664;23.256;2023-04-20T06:13:30;94206.72;;;11.24;61.04
6528;BME280;64597;42.664;23.256;2023-04-20T06:15:56;94222.69;;;11.34;60.98
6528;BME280;64597;42.664;23.256;2023-04-20T06:18:22;94209.84;;;11.21;61.33
6528;BME280;64597;42.664;23.256;2023-04-20T06:20:48;94221.38;;;11.15;61.18
6528;BME280;64597;42.664;23.256;2023-04-20T06:23:13;94219.84;;;11.19;61.71
6528;BME280;64597;42.664;23.256;2023-04-20T06:25:39;94218.31;;;11.23;61.84
6528;BME280;64597;42.664;23.256;2023-04-20T06:28:04;94207.78;;;11.01;61.56
6528;BME280;64597;42.664;23.256;2023-04-20T06:30:31;94192.72;;;10.80;61.54
6528;BME280;64597;42.664;23.256;2023-04-20T06:32:59;94225.81;;;11.09;61.87
6528;BME280;64597;42.664;23.256;2023-04-20T06:35:25;94231.81;;;11.05;62.30
6528;BME280;64597;42.664;23.256;2023-04-20T06:37:51;94227.41;;;11.10;61.22
6528;BME280;64597;42.664;23.256;2023-04-20T06:40:18;94230.28;;;11.09;61.51
6528;BME280;64597;42.664;23.256;2023-04-20T06:42:44;94225.00;;;11.09;61.52
6528;BME280;64597;42.664;23.256;2023-04-20T06:45:10;94233.47;;;11.11;61.96
6528;BME280;64597;42.664;23.256;2023-04-20T06:47:36;94235.63;;;11.14;62.01
6528;BME280;64597;42.664;23.256;2023-04-20T06:50:05;94240.41;;;11.17;62.05
6528;BME280;64597;42.664;23.256;2023-04-20T06:52:38;94240.91;;;11.14;61.99
6528;BME280;64597;42.664;23.256;2023-04-20T06:55:04;94245.13;;;11.15;62.38
6528;BME280;64597;42.664;23.256;2023-04-20T06:57:31;94253.34;;;11.18;62.26
6528;BME280;64597;42.664;23.256;2023-04-20T06:59:57;94244.72;;;11.23;62.97
6528;BME280;64597;42.664;23.256;2023-04-20T07:02:23;94253.72;;;11.27;63.83
6528;BME280;64597;42.664;23.256;2023-04-20T07:04:49;94249.69;;;11.19;63.52
6528;BME280;64597;42.664;23.256;2023-04-20T07:07:14;94241.47;;;11.16;63.65
6528;BME280;64597;42.664;23.256;2023-04-20T07:09:41;94258.63;;;11.18;63.66
6528;BME280;64597;42.664;23.256;2023-04-20T07:12:06;94253.34;;;11.18;63.89
6528;BME280;64597;42.664;23.256;2023-04-20T07:14:32;94257.03;;;11.17;64.17
6528;BME280;64597;42.664;23.256;2023-04-20T07:16:58;94251.13;;;11.10;64.39
6528;BME280;64597;42.664;23.256;2023-04-20T07:19:23;94256.38;;;11.27;64.74
6528;BME280;64597;42.664;23.256;2023-04-20T07:21:49;94261.97;;;11.30;64.77
6528;BME280;64597;42.664;23.256;2023-04-20T07:24:14;94263.81;;;11.30;64.78
6528;BME280;64597;42.664;23.256;2023-04-20T07:26:40;94261.59;;;11.22;64.71
6528;BME280;64597;42.664;23.256;2023-04-20T07:29:05;94257.59;;;11.19;64.26
6528;BME280;64597;42.664;23.256;2023-04-20T07:31:31;94249.59;;;11.14;64.09
6528;BME280;64597;42.664;23.256;2023-04-20T07:33:56;94257.09;;;11.22;63.36
6528;BME280;64597;42.664;23.256;2023-04-20T07:36:22;94227.78;;;11.19;63.33
6528;BME280;64597;42.664;23.256;2023-04-20T07:38:48;94252.56;;;11.39;62.58
6528;BME280;64597;42.664;23.256;2023-04-20T07:41:14;94246.72;;;11.59;63.23
6528;BME280;64597;42.664;23.256;2023-04-20T07:43:40;94242.22;;;11.81;61.85
6528;BME280;64597;42.664;23.256;2023-04-20T07:46:06;94247.13;;;12.26;61.14
6528;BME280;64597;42.664;23.256;2023-04-20T07:48:35;94245.91;;;12.75;60.30
6528;BME280;64597;42.664;23.256;2023-04-20T07:51:01;94235.94;;;12.87;58.52
6528;BME280;64597;42.664;23.256;2023-04-20T07:53:30;94220.84;;;12.88;57.43
6528;BME280;64597;42.664;23.256;2023-04-20T07:55:55;94239.91;;;13.42;55.59
6528;BME280;64597;42.664;23.256;2023-04-20T07:58:21;94232.53;;;13.54;56.73
6528;BME280;64597;42.664;23.256;2023-04-20T08:00:46;94239.25;;;13.96;55.70
6528;BME280;64597;42.664;23.256;2023-04-20T08:03:13;94237.22;;;14.39;55.11
6528;BME280;64597;42.664;23.256;2023-04-20T08:05:38;94235.06;;;14.91;53.58
6528;BME280;64597;42.664;23.256;2023-04-20T08:08:05;94231.84;;;15.04;51.68
6528;BME280;64597;42.664;23.256;2023-04-20T08:10:31;94223.94;;;14.84;51.23
6528;BME280;64597;42.664;23.256;2023-04-20T08:12:57;94232.97;;;14.63;50.82
6528;BME280;64597;42.664;23.256;2023-04-20T08:15:23;94236.66;;;14.72;51.58
6528;BME280;64597;42.664;23.256;2023-04-20T08:17:48;94247.56;;;14.70;50.82
6528;BME280;64597;42.664;23.256;2023-04-20T08:20:14;94242.00;;;14.52;50.21
6528;BME280;64597;42.664;23.256;2023-04-20T08:22:39;94247.84;;;14.29;51.68
6528;BME280;64597;42.664;23.256;2023-04-20T08:25:05;94252.56;;;14.22;52.38
6528;BME280;64597;42.664;23.256;2023-04-20T08:27:31;94252.81;;;14.25;52.68
6528;BME280;64597;42.664;23.256;2023-04-20T08:29:59;94252.31;;;14.18;52.54
6528;BME280;64597;42.664;23.256;2023-04-20T08:32:26;94261.03;;;14.03;52.15
6528;BME280;64597;42.664;23.256;2023-04-20T08:34:53;94259.16;;;14.09;52.48
6528;BME280;64597;42.664;23.256;2023-04-20T08:37:18;94255.19;;;14.06;52.50
6528;BME280;64597;42.664;23.256;2023-04-20T08:39:44;94259.41;;;13.92;52.23
6528;BME280;64597;42.664;23.256;2023-04-20T08:42:10;94260.47;;;13.91;51.73
6528;BME280;64597;42.664;23.256;2023-04-20T08:44:37;94256.75;;;13.87;52.41
6528;BME280;64597;42.664;23.256;2023-04-20T08:47:05;94257.00;;;13.81;52.74
6528;BME280;64597;42.664;23.256;2023-04-20T08:49:31;94241.88;;;13.71;52.82
6528;BME280;64597;42.664;23.256;2023-04-20T08:51:57;94258.56;;;13.72;53.68
6528;BME280;64597;42.664;23.256;2023-04-20T08:54:23;94250.34;;;13.68;53.18
6528;BME280;64597;42.664;23.256;2023-04-20T08:56:49;94260.16;;;13.73;53.21
6528;BME280;64597;42.664;23.256;2023-04-20T08:59:15;94259.34;;;13.72;53.04
6528;BME280;64597;42.664;23.256;2023-04-20T09:01:42;94257.78;;;13.71;53.60
6528;BME280;64597;42.664;23.256;2023-04-20T09:04:22;94262.00;;;13.67;53.63
6528;BME280;64597;42.664;23.256;2023-04-20T09:06:49;94265.94;;;13.60;53.23
6528;BME280;64597;42.664;23.256;2023-04-20T09:09:16;94261.44;;;13.55;53.40
6528;BME280;64597;42.664;23.256;2023-04-20T09:11:42;94259.28;;;13.52;53.18
6528;BME280;64597;42.664;23.256;2023-04-20T09:14:10;94258.78;;;13.55;53.64
6528;BME280;64597;42.664;23.256;2023-04-20T09:16:51;94256.13;;;13.55;53.77
6528;BME280;64597;42.664;23.256;2023-04-20T09:19:24;94258.53;;;13.57;53.62
6528;BME280;64597;42.664;23.256;2023-04-20T09:21:54;94256.91;;;13.51;53.26
6528;BME280;64597;42.664;23.256;2023-04-20T09:24:22;94258.69;;;13.30;53.35
6528;BME280;64597;42.664;23.256;2023-04-20T09:26:49;94250.72;;;13.30;53.19
6528;BME280;64597;42.664;23.256;2023-04-20T09:29:21;94253.13;;;13.32;53.20
6528;BME280;64597;42.664;23.256;2023-04-20T09:31:49;94253.66;;;13.29;52.88
6528;BME280;64597;42.664;23.256;2023-04-20T09:34:15;94242.94;;;13.08;54.17
6528;BME280;64597;42.664;23.256;2023-04-20T09:36:48;94250.50;;;12.95;54.04
6528;BME280;64597;42.664;23.256;2023-04-20T09:39:22;94244.31;;;13.16;53.97
6528;BME280;64597;42.664;23.256;2023-04-20T09:41:49;94248.75;;;13.05;53.89
6528;BME280;64597;42.664;23.256;2023-04-20T09:44:16;94232.53;;;12.92;54.05
6528;BME280;64597;42.664;23.256;2023-04-20T09:46:43;94239.97;;;13.00;54.20
6528;BME280;64597;42.664;23.256;2023-04-20T09:49:10;94241.38;;;13.12;54.20
6528;BME280;64597;42.664;23.256;2023-04-20T09:51:38;94216.81;;;13.22;54.18
6528;BME280;64597;42.664;23.256;2023-04-20T09:54:07;94240.28;;;13.70;53.75
6528;BME280;64597;42.664;23.256;2023-04-20T09:56:36;94238.19;;;13.92;52.82
6528;BME280;64597;42.664;23.256;2023-04-20T09:59:03;94227.38;;;14.04;52.46
6528;BME280;64597;42.664;23.256;2023-04-20T10:01:30;94228.69;;;14.06;51.67
6528;BME280;64597;42.664;23.256;2023-04-20T10:04:00;94223.94;;;14.24;52.13
6528;BME280;64597;42.664;23.256;2023-04-20T10:06:31;94225.00;;;14.28;50.94
6528;BME280;64597;42.664;23.256;2023-04-20T10:09:00;94211.19;;;14.26;51.46
6528;BME280;64597;42.664;23.256;2023-04-20T10:14:12;94218.13;;;14.67;50.52
6528;BME280;64597;42.664;23.256;2023-04-20T10:16:38;94213.31;;;14.74;50.82
6528;BME280;64597;42.664;23.256;2023-04-20T10:19:05;94213.84;;;14.86;50.52
6528;BME280;64597;42.664;23.256;2023-04-20T10:21:44;94210.84;;;15.03;49.89
6528;BME280;64597;42.664;23.256;2023-04-20T10:24:12;94209.97;;;15.27;47.76
6528;BME280;64597;42.664;23.256;2023-04-20T10:26:43;94212.72;;;15.12;48.12
6528;BME280;64597;42.664;23.256;2023-04-20T10:29:22;94205.81;;;15.01;49.20
6528;BME280;64597;42.664;23.256;2023-04-20T10:31:49;94200.97;;;15.23;49.46
6528;BME280;64597;42.664;23.256;2023-04-20T10:34:16;94205.19;;;15.29;48.30
6528;BME280;64597;42.664;23.256;2023-04-20T10:36:43;94202.81;;;15.33;48.17
6528;BME280;64597;42.664;23.256;2023-04-20T10:39:17;94195.59;;;15.33;48.22
6528;BME280;64597;42.664;23.256;2023-04-20T10:41:53;94191.59;;;15.51;48.41
6528;BME280;64597;42.664;23.256;2023-04-20T10:44:20;94199.69;;;15.80;48.31
6528;BME280;64597;42.664;23.256;2023-04-20T10:46:53;94186.84;;;15.87;47.57
6528;BME280;64597;42.664;23.256;2023-04-20T10:49:25;94196.53;;;16.11;47.12
6528;BME280;64597;42.664;23.256;2023-04-20T10:51:52;94191.94;;;16.22;46.74
6528;BME280;64597;42.664;23.256;2023-04-20T10:54:18;94191.31;;;16.35;47.10
6528;BME280;64597;42.664;23.256;2023-04-20T10:56:52;94191.75;;;16.47;46.00
6528;BME280;64597;42.664;23.256;2023-04-20T10:59:19;94197.09;;;16.42;45.75
6528;BME280;64597;42.664;23.256;2023-04-20T11:01:46;94200.91;;;16.65;46.46
6528;BME280;64597;42.664;23.256;2023-04-20T11:04:12;94197.69;;;16.96;46.47
6528;BME280;64597;42.664;23.256;2023-04-20T11:06:39;94190.00;;;17.18;45.95
6528;BME280;64597;42.664;23.256;2023-04-20T11:09:19;94189.47;;;17.16;43.84
6528;BME280;64597;42.664;23.256;2023-04-20T11:12:00;94178.34;;;17.09;44.67
6528;BME280;64597;42.664;23.256;2023-04-20T11:14:27;94185.31;;;17.05;43.77
6528;BME280;64597;42.664;23.256;2023-04-20T11:16:53;94171.94;;;16.87;44.47
6528;BME280;64597;42.664;23.256;2023-04-20T11:19:26;94185.91;;;17.02;43.99
6528;BME280;64597;42.664;23.256;2023-04-20T11:21:52;94169.81;;;17.12;44.00
6528;BME280;64597;42.664;23.256;2023-04-20T11:24:20;94169.97;;;16.97;43.21
6528;BME280;64597;42.664;23.256;2023-04-20T11:26:46;94162.09;;;16.87;43.08
6528;BME280;64597;42.664;23.256;2023-04-20T11:29:35;94158.44;;;17.07;44.66
6528;BME280;64597;42.664;23.256;2023-04-20T11:32:04;94159.53;;;17.24;43.32
6528;BME280;64597;42.664;23.256;2023-04-20T11:34:31;94165.81;;;17.33;42.71
6528;BME280;64597;42.664;23.256;2023-04-20T11:37:09;94159.72;;;17.09;42.70
6528;BME280;64597;42.664;23.256;2023-04-20T11:39:36;94151.84;;;16.76;42.86
6528;BME280;64597;42.664;23.256;2023-04-20T11:42:03;94143.53;;;16.82;42.31
6528;BME280;64597;42.664;23.256;2023-04-20T11:44:29;94151.53;;;17.01;43.29
6528;BME280;64597;42.664;23.256;2023-04-20T11:46:58;94151.41;;;17.35;43.61
6528;BME280;64597;42.664;23.256;2023-04-20T11:49:27;94155.56;;;17.64;43.18
6528;BME280;64597;42.664;23.256;2023-04-20T11:51:53;94152.72;;;17.79;41.42
6528;BME280;64597;42.664;23.256;2023-04-20T11:54:18;94161.22;;;17.81;40.89
6528;BME280;64597;42.664;23.256;2023-04-20T11:56:44;94149.91;;;17.89;41.26
6528;BME280;64597;42.664;23.256;2023-04-20T11:59:11;94159.50;;;17.90;40.79
6528;BME280;64597;42.664;23.256;2023-04-20T12:01:38;94150.41;;;17.91;40.72
6528;BME280;64597;42.664;23.256;2023-04-20T12:04:04;94145.16;;;17.86;41.17
6528;BME280;64597;42.664;23.256;2023-04-20T12:06:30;94153.28;;;17.95;41.02
6528;BME280;64597;42.664;23.256;2023-04-20T12:08:59;94147.66;;;17.96;40.97
6528;BME280;64597;42.664;23.256;2023-04-20T12:11:25;94155.38;;;17.98;41.24
6528;BME280;64597;42.664;23.256;2023-04-20T12:13:51;94161.72;;;18.02;41.66
6528;BME280;64597;42.664;23.256;2023-04-20T12:16:17;94157.38;;;18.06;40.94
6528;BME280;64597;42.664;23.256;2023-04-20T12:18:43;94169.78;;;17.97;41.91
6528;BME280;64597;42.664;23.256;2023-04-20T12:21:08;94170.59;;;17.79;45.91
6528;BME280;64597;42.664;23.256;2023-04-20T12:23:34;94164.69;;;17.40;47.32
6528;BME280;64597;42.664;23.256;2023-04-20T12:26:03;94169.69;;;17.22;48.53
6528;BME280;64597;42.664;23.256;2023-04-20T12:28:32;94170.44;;;17.04;49.38
6528;BME280;64597;42.664;23.256;2023-04-20T12:30:57;94166.63;;;17.10;49.58
6528;BME280;64597;42.664;23.256;2023-04-20T12:33:23;94158.81;;;16.95;50.03
6528;BME280;64597;42.664;23.256;2023-04-20T12:35:49;94165.38;;;16.79;50.45
6528;BME280;64597;42.664;23.256;2023-04-20T12:38:15;94158.28;;;16.70;50.15
6528;BME280;64597;42.664;23.256;2023-04-20T12:40:41;94149.53;;;16.64;50.67
6528;BME280;64597;42.664;23.256;2023-04-20T12:43:07;94155.72;;;16.60;50.06
6528;BME280;64597;42.664;23.256;2023-04-20T12:45:32;94137.84;;;16.65;50.41
6528;BME280;64597;42.664;23.256;2023-04-20T12:47:59;94147.88;;;16.73;49.99
6528;BME280;64597;42.664;23.256;2023-04-20T12:50:25;94147.31;;;16.76;48.96
6528;BME280;64597;42.664;23.256;2023-04-20T12:52:50;94146.22;;;16.77;49.02
6528;BME280;64597;42.664;23.256;2023-04-20T12:55:17;94132.28;;;16.85;49.56
6528;BME280;64597;42.664;23.256;2023-04-20T12:57:45;94137.00;;;16.93;50.56
6528;BME280;64597;42.664;23.256;2023-04-20T13:00:11;94131.00;;;17.06;49.51
6528;BME280;64597;42.664;23.256;2023-04-20T13:02:37;94130.91;;;17.11;47.18
6528;BME280;64597;42.664;23.256;2023-04-20T13:05:03;94135.09;;;17.17;47.12